sensor_id;sensor_type;location;lat;lon;timestamp;pressure;altitude;pressure_sealevel;temperature;humidity
2178;BME280;1095;50.992;6.798;2023-04-01T00:00:22;98697.16;;;10.03;97.77
2178;BME280;1095;50.992;6.798;2023-04-01T00:02:49;98705.22;;;10.08;97.37
2178;BME280;1095;50.992;6.798;2023-04-01T00:05:16;98706.84;;;10.09;97.21
2178;BME280;1095;50.992;6.798;2023-04-01T00:07:44;98704.03;;;10.11;96.98
2178;BME280;1095;50.992;6.798;2023-04-01T00:10:12;98698.00;;;10.10;97.02
2178;BME280;1095;50.992;6.798;2023-04-01T00:12:39;98713.25;;;10.07;97.17
2178;BME280;1095;50.992;6.798;2023-04-01T00:15:07;98710.25;;;10.10;97.25
2178;BME280;1095;50.992;6.798;2023-04-01T00:17:34;98703.41;;;10.09;97.15
2178;BME280;1095;50.992;6.798;2023-04-01T00:20:02;98710.47;;;10.15;96.78
2178;BME280;1095;50.992;6.798;2023-04-01T00:22:29;98709.44;;;10.09;96.96
2178;BME280;1095;50.992;6.798;2023-04-01T00:24:57;98709.66;;;10.08;97.35
2178;BME280;1095;50.992;6.798;2023-04-01T00:27:24;98706.22;;;10.01;97.13
2178;BME280;1095;50.992;6.798;2023-04-01T00:29:51;98706.00;;;9.95;97.42
2178;BME280;1095;50.992;6.798;2023-04-01T00:32:18;98718.06;;;10.03;97.88
2178;BME280;1095;50.992;6.798;2023-04-01T00:34:44;98708.41;;;9.97;97.73
2178;BME280;1095;50.992;6.798;2023-04-01T00:37:11;98701.59;;;9.96;97.66
2178;BME280;1095;50.992;6.798;2023-04-01T00:39:38;98701.78;;;10.01;97.87
2178;BME280;1095;50.992;6.798;2023-04-01T00:42:09;98709.81;;;9.99;97.88
2178;BME280;1095;50.992;6.798;2023-04-01T00:44:37;98714.06;;;10.01;97.78
2178;BME280;1095;50.992;6.798;2023-04-01T00:47:04;98709.44;;;10.03;97.57
2178;BME280;1095;50.992;6.798;2023-04-01T00:49:33;98691.94;;;9.96;97.68
2178;BME280;1095;50.992;6.798;2023-04-01T00:52:04;98703.41;;;10.02;97.57
2178;BME280;1095;50.992;6.798;2023-04-01T00:54:34;98703.00;;;10.05;97.61
2178;BME280;1095;50.992;6.798;2023-04-01T00:57:07;98700.19;;;10.00;97.29
2178;BME280;1095;50.992;6.798;2023-04-01T00:59:38;98692.56;;;9.92;97.75
2178;BME280;1095;50.992;6.798;2023-04-01T01:02:08;98714.84;;;10.01;97.79
2178;BME280;1095;50.992;6.798;2023-04-01T01:04:37;98711.03;;;9.97;98.40
2178;BME280;1095;50.992;6.798;2023-04-01T01:07:13;98715.66;;;9.95;98.13
2178;BME280;1095;50.992;6.798;2023-04-01T01:09:50;98710.84;;;9.92;98.61
2178;BME280;1095;50.992;6.798;2023-04-01T01:12:25;98720.06;;;9.94;98.67
2178;BME280;1095;50.992;6.798;2023-04-01T01:15:02;98723.91;;;9.92;99.07
2178;BME280;1095;50.992;6.798;2023-04-01T01:17:39;98709.03;;;9.86;99.50
2178;BME280;1095;50.992;6.798;2023-04-01T01:23:27;98703.19;;;9.84;100.00
2178;BME280;1095;50.992;6.798;2023-04-01T01:26:08;98711.63;;;9.79;100.00
2178;BME280;1095;50.992;6.798;2023-04-01T01:28:46;98706.81;;;9.83;100.00
2178;BME280;1095;50.992;6.798;2023-04-01T01:31:21;98703.59;;;9.81;100.00
2178;BME280;1095;50.992;6.798;2023-04-01T01:34:00;98703.97;;;9.78;100.00
2178;BME280;1095;50.992;6.798;2023-04-01T01:36:32;98698.56;;;9.79;100.00
2178;BME280;1095;50.992;6.798;2023-04-01T01:39:00;98700.38;;;9.79;100.00
2178;BME280;1095;50.992;6.798;2023-04-01T01:41:27;98695.53;;;9.76;100.00
2178;BME280;1095;50.992;6.798;2023-04-01T01:43:56;98703.97;;;9.78;100.00
2178;BME280;1095;50.992;6.798;2023-04-01T01:46:24;98697.53;;;9.74;100.00
2178;BME280;1095;50.992;6.798;2023-04-01T01:48:53;98699.72;;;9.70;100.00
2178;BME280;1095;50.992;6.798;2023-04-01T01:51:21;98703.13;;;9.64;100.00
2178;BME280;1095;50.992;6.798;2023-04-01T01:53:50;98692.06;;;9.62;100.00
2178;BME280;1095;50.992;6.798;2023-04-01T01:56:18;98700.72;;;9.62;100.00
2178;BME280;1095;50.992;6.798;2023-04-01T01:58:49;98695.06;;;9.52;100.00
2178;BME280;1095;50.992;6.798;2023-04-01T02:01:21;98707.09;;;9.53;100.00
2178;BME280;1095;50.992;6.798;2023-04-01T02:03:51;98711.91;;;9.50;100.00
2178;BME280;1095;50.992;6.798;2023-04-01T02:06:21;98720.31;;;9.45;100.00
2178;BME280;1095;50.992;6.798;2023-04-01T02:08:51;98704.66;;;9.45;100.00
2178;BME280;1095;50.992;6.798;2023-04-01T02:11:22;98710.91;;;9.44;100.00
2178;BME280;1095;50.992;6.798;2023-04-01T02:13:52;98696.66;;;9.40;100.00
2178;BME280;1095;50.992;6.798;2023-04-01T02:16:22;98711.69;;;9.38;100.00
2178;BME280;1095;50.992;6.798;2023-04-01T02:18:51;98705.88;;;9.36;100.00
2178;BME280;1095;50.992;6.798;2023-04-01T02:21:21;98699.41;;;9.32;100.00
2178;BME280;1095;50.992;6.798;2023-04-01T02:23:52;98704.84;;;9.30;100.00
2178;BME280;1095;50.992;6.798;2023-04-01T02:26:20;98707.25;;;9.32;100.00
2178;BME280;1095;50.992;6.798;2023-04-01T02:28:48;98708.84;;;9.33;100.00
2178;BME280;1095;50.992;6.798;2023-04-01T02:31:17;98705.63;;;9.31;100.00
2178;BME280;1095;50.992;6.798;2023-04-01T02:33:44;98697.34;;;9.21;100.00
2178;BME280;1095;50.992;6.798;2023-04-01T02:36:12;98705.84;;;9.29;100.00
2178;BME280;1095;50.992;6.798;2023-04-01T02:38:40;98696.78;;;9.25;100.00
2178;BME280;1095;50.992;6.798;2023-04-01T02:41:09;98693.75;;;9.22;100.00
2178;BME280;1095;50.992;6.798;2023-04-01T02:43:36;98705.03;;;9.29;100.00
2178;BME280;1095;50.992;6.798;2023-04-01T02:46:03;98704.63;;;9.32;100.00
2178;BME280;1095;50.992;6.798;2023-04-01T02:48:30;98704.63;;;9.32;100.00
2178;BME280;1095;50.992;6.798;2023-04-01T02:50:57;98709.47;;;9.35;100.00
2178;BME280;1095;50.992;6.798;2023-04-01T02:53:23;98710.66;;;9.32;100.00
2178;BME280;1095;50.992;6.798;2023-04-01T02:55:50;98706.25;;;9.33;100.00
2178;BME280;1095;50.992;6.798;2023-04-01T02:58:19;98709.84;;;9.32;100.00
2178;BME280;1095;50.992;6.798;2023-04-01T03:00:45;98711.06;;;9.29;100.00
2178;BME280;1095;50.992;6.798;2023-04-01T03:03:13;98715.69;;;9.34;100.00
2178;BME280;1095;50.992;6.798;2023-04-01T03:05:40;98709.09;;;9.38;100.00
2178;BME280;1095;50.992;6.798;2023-04-01T03:08:07;98719.09;;;9.35;100.00
2178;BME280;1095;50.992;6.798;2023-04-01T03:10:33;98718.91;;;9.36;100.00
2178;BME280;1095;50.992;6.798;2023-04-01T03:13:00;98719.31;;;9.33;100.00
2178;BME280;1095;50.992;6.798;2023-04-01T03:15:28;98717.50;;;9.34;100.00
2178;BME280;1095;50.992;6.798;2023-04-01T03:17:55;98720.91;;;9.34;100.00
2178;BME280;1095;50.992;6.798;2023-04-01T03:20:21;98722.31;;;9.37;100.00
2178;BME280;1095;50.992;6.798;2023-04-01T03:22:48;98715.13;;;9.39;100.00
2178;BME280;1095;50.992;6.798;2023-04-01T03:25:15;98724.94;;;9.37;100.00
2178;BME280;1095;50.992;6.798;2023-04-01T03:27:41;98730.97;;;9.37;100.00
2178;BME280;1095;50.992;6.798;2023-04-01T03:30:09;98737.00;;;9.38;100.00
2178;BME280;1095;50.992;6.798;2023-04-01T03:32:37;98735.38;;;9.37;100.00
2178;BME280;1095;50.992;6.798;2023-04-01T03:35:04;98736.75;;;9.32;100.00
2178;BME280;1095;50.992;6.798;2023-04-01T03:37:31;98742.78;;;9.33;100.00
2178;BME280;1095;50.992;6.798;2023-04-01T03:39:58;98740.94;;;9.27;100.00
2178;BME280;1095;50.992;6.798;2023-04-01T03:42:24;98736.13;;;9.24;100.00
2178;BME280;1095;50.992;6.798;2023-04-01T03:44:51;98741.50;;;9.16;100.00
2178;BME280;1095;50.992;6.798;2023-04-01T03:47:17;98744.28;;;9.14;100.00
2178;BME280;1095;50.992;6.798;2023-04-01T03:49:45;98745.47;;;9.12;100.00
2178;BME280;1095;50.992;6.798;2023-04-01T03:52:12;98741.25;;;9.11;100.00
2178;BME280;1095;50.992;6.798;2023-04-01T03:54:39;98745.88;;;9.09;100.00
2178;BME280;1095;50.992;6.798;2023-04-01T03:57:05;98747.28;;;9.11;100.00
2178;BME280;1095;50.992;6.798;2023-04-01T03:59:32;98755.16;;;9.18;100.00
2178;BME280;1095;50.992;6.798;2023-04-01T04:01:59;98760.38;;;9.18;100.00
2178;BME280;1095;50.992;6.798;2023-04-01T04:04:26;98740.88;;;9.14;100.00
2178;BME280;1095;50.992;6.798;2023-04-01T04:06:55;98756.91;;;9.11;100.00
2178;BME280;1095;50.992;6.798;2023-04-01T04:09:22;98755.50;;;9.08;100.00
2178;BME280;1095;50.992;6.798;2023-04-01T04:11:49;98759.91;;;9.08;100.00
2178;BME280;1095;50.992;6.798;2023-04-01T04:14:16;98756.06;;;9.04;100.00
2178;BME280;1095;50.992;6.798;2023-04-01T04:16:43;98754.69;;;9.08;100.00
2178;BME280;1095;50.992;6.798;2023-04-01T04:19:09;98759.53;;;9.11;100.00
2178;BME280;1095;50.992;6.798;2023-04-01T04:21:36;98762.75;;;9.13;100.00
2178;BME280;1095;50.992;6.798;2023-04-01T04:24:04;98764.94;;;9.09;100.00
2178;BME280;1095;50.992;6.798;2023-04-01T04:26:31;98754.69;;;9.08;100.00
2178;BME280;1095;50.992;6.798;2023-04-01T04:28:58;98767.13;;;9.06;100.00
2178;BME280;1095;50.992;6.798;2023-04-01T04:31:25;98767.13;;;9.06;100.00
2178;BME280;1095;50.992;6.798;2023-04-01T04:33:52;98765.88;;;9.02;100.00
2178;BME280;1095;50.992;6.798;2023-04-01T04:36:20;98770.09;;;9.03;100.00
2178;BME280;1095;50.992;6.798;2023-04-01T04:38:47;98771.69;;;8.97;100.00
2178;BME280;1095;50.992;6.798;2023-04-01T04:41:17;98768.88;;;8.98;100.00
2178;BME280;1095;50.992;6.798;2023-04-01T04:43:49;98770.91;;;8.96;100.00
2178;BME280;1095;50.992;6.798;2023-04-01T04:46:16;98774.09;;;8.98;100.00
2178;BME280;1095;50.992;6.798;2023-04-01T04:48:43;98767.88;;;8.99;100.00
2178;BME280;1095;50.992;6.798;2023-04-01T04:51:13;98774.31;;;9.04;100.00
2178;BME280;1095;50.992;6.798;2023-04-01T04:53:40;98772.69;;;8.96;100.00
2178;BME280;1095;50.992;6.798;2023-04-01T04:56:07;98789.19;;;9.03;100.00
2178;BME280;1095;50.992;6.798;2023-04-01T04:58:35;98782.16;;;9.04;100.00
2178;BME280;1095;50.992;6.798;2023-04-01T05:01:06;98791.16;;;9.01;100.00
2178;BME280;1095;50.992;6.798;2023-04-01T05:03:32;98788.75;;;8.99;100.00
2178;BME280;1095;50.992;6.798;2023-04-01T05:05:59;98792.78;;;9.02;100.00
2178;BME280;1095;50.992;6.798;2023-04-01T05:08:25;98789.97;;;8.97;100.00
2178;BME280;1095;50.992;6.798;2023-04-01T05:10:52;98788.16;;;8.97;100.00
2178;BME280;1095;50.992;6.798;2023-04-01T05:13:19;98793.38;;;8.97;100.00
2178;BME280;1095;50.992;6.798;2023-04-01T05:15:47;98801.97;;;8.98;100.00
2178;BME280;1095;50.992;6.798;2023-04-01T05:18:13;98801.41;;;9.03;100.00
2178;BME280;1095;50.992;6.798;2023-04-01T05:20:46;98804.03;;;9.03;100.00
2178;BME280;1095;50.992;6.798;2023-04-01T05:23:13;98802.03;;;9.05;100.00
2178;BME280;1095;50.992;6.798;2023-04-01T05:25:39;98808.06;;;9.05;100.00
2178;BME280;1095;50.992;6.798;2023-04-01T05:28:06;98812.47;;;9.05;100.00
2178;BME280;1095;50.992;6.798;2023-04-01T05:30:32;98810.84;;;9.04;100.00
2178;BME280;1095;50.992;6.798;2023-04-01T05:33:01;98804.41;;;8.99;100.00
2178;BME280;1095;50.992;6.798;2023-04-01T05:35:27;98806.25;;;9.06;100.00
2178;BME280;1095;50.992;6.798;2023-04-01T05:37:54;98812.47;;;9.05;100.00
2178;BME280;1095;50.992;6.798;2023-04-01T05:40:20;98810.03;;;9.03;100.00
2178;BME280;1095;50.992;6.798;2023-04-01T05:42:47;98820.09;;;9.06;100.00
2178;BME280;1095;50.992;6.798;2023-04-01T05:45:14;98818.13;;;9.08;100.00
2178;BME280;1095;50.992;6.798;2023-04-01T05:47:41;98818.31;;;9.07;100.00
2178;BME280;1095;50.992;6.798;2023-04-01T05:50:10;98816.25;;;9.02;100.00
2178;BME280;1095;50.992;6.798;2023-04-01T05:52:37;98828.50;;;9.02;100.00
2178;BME280;1095;50.992;6.798;2023-04-01T05:55:04;98816.44;;;9.01;100.00
2178;BME280;1095;50.992;6.798;2023-04-01T05:57:31;98820.66;;;9.02;100.00
2178;BME280;1095;50.992;6.798;2023-04-01T05:59:58;98837.56;;;9.06;100.00
2178;BME280;1095;50.992;6.798;2023-04-01T06:02:24;98822.91;;;9.05;100.00
2178;BME280;1095;50.992;6.798;2023-04-01T06:04:58;98819.25;;;8.99;100.00
2178;BME280;1095;50.992;6.798;2023-04-01T06:07:29;98821.72;;;9.07;100.00
2178;BME280;1095;50.992;6.798;2023-04-01T06:09:56;98818.91;;;9.09;100.00
2178;BME280;1095;50.992;6.798;2023-04-01T06:12:38;98821.75;;;9.14;100.00
2178;BME280;1095;50.992;6.798;2023-04-01T06:15:16;98826.97;;;9.14;100.00
2178;BME280;1095;50.992;6.798;2023-04-01T06:17:56;98831.63;;;9.18;100.00
2178;BME280;1095;50.992;6.798;2023-04-01T06:20:29;98833.47;;;9.24;100.00
2178;BME280;1095;50.992;6.798;2023-04-01T06:25:46;98839.13;;;9.28;100.00
2178;BME280;1095;50.992;6.798;2023-04-01T06:31:30;98847.25;;;9.40;100.00
2178;BME280;1095;50.992;6.798;2023-04-01T06:34:08;98840.03;;;9.42;100.00
2178;BME280;1095;50.992;6.798;2023-04-01T06:36:53;98843.44;;;9.42;100.00
2178;BME280;1095;50.992;6.798;2023-04-01T06:42:31;98845.25;;;9.48;100.00
2178;BME280;1095;50.992;6.798;2023-04-01T06:45:10;98836.88;;;9.59;100.00
2178;BME280;1095;50.992;6.798;2023-04-01T06:47:56;98834.09;;;9.61;100.00
2178;BME280;1095;50.992;6.798;2023-04-01T06:50:30;98841.41;;;9.79;100.00
2178;BME280;1095;50.992;6.798;2023-04-01T06:53:06;98848.63;;;9.77;100.00
2178;BME280;1095;50.992;6.798;2023-04-01T06:55:41;98844.41;;;9.76;100.00
2178;BME280;1095;50.992;6.798;2023-04-01T06:58:19;98851.19;;;9.63;100.00
2178;BME280;1095;50.992;6.798;2023-04-01T07:00:49;98844.66;;;9.46;100.00
2178;BME280;1095;50.992;6.798;2023-04-01T07:03:21;98856.88;;;9.39;100.00
2178;BME280;1095;50.992;6.798;2023-04-01T07:05:51;98862.06;;;9.32;100.00
2178;BME280;1095;50.992;6.798;2023-04-01T07:08:24;98861.63;;;9.29;100.00
2178;BME280;1095;50.992;6.798;2023-04-01T07:10:58;98849.91;;;9.18;100.00
2178;BME280;1095;50.992;6.798;2023-04-01T07:13:41;98874.88;;;9.27;100.00
2178;BME280;1095;50.992;6.798;2023-04-01T07:16:17;98857.16;;;9.23;100.00
2178;BME280;1095;50.992;6.798;2023-04-01T07:18:48;98880.09;;;9.27;100.00
2178;BME280;1095;50.992;6.798;2023-04-01T07:21:25;98886.13;;;9.28;100.00
2178;BME280;1095;50.992;6.798;2023-04-01T07:23:59;98879.28;;;9.27;100.00
2178;BME280;1095;50.992;6.798;2023-04-01T07:26:27;98890.38;;;9.36;100.00
2178;BME280;1095;50.992;6.798;2023-04-01T07:28:56;98892.75;;;9.30;100.00
2178;BME280;1095;50.992;6.798;2023-04-01T07:31:39;98889.38;;;9.37;100.00
2178;BME280;1095;50.992;6.798;2023-04-01T07:34:17;98889.72;;;9.27;100.00
2178;BME280;1095;50.992;6.798;2023-04-01T07:36:48;98898.78;;;9.31;100.00
2178;BME280;1095;50.992;6.798;2023-04-01T07:39:30;98903.63;;;9.34;100.00
2178;BME280;1095;50.992;6.798;2023-04-01T07:42:02;98906.66;;;9.38;100.00
2178;BME280;1095;50.992;6.798;2023-04-01T07:44:41;98902.25;;;9.38;100.00
2178;BME280;1095;50.992;6.798;2023-04-01T07:47:20;98907.28;;;9.40;100.00
2178;BME280;1095;50.992;6.798;2023-04-01T07:50:02;98913.06;;;9.35;100.00
2178;BME280;1095;50.992;6.798;2023-04-01T07:52:36;98926.38;;;9.40;100.00
2178;BME280;1095;50.992;6.798;2023-04-01T07:55:09;98925.00;;;9.44;100.00
2178;BME280;1095;50.992;6.798;2023-04-01T07:57:44;98929.63;;;9.49;100.00
2178;BME280;1095;50.992;6.798;2023-04-01T08:00:19;98924.38;;;9.42;100.00
2178;BME280;1095;50.992;6.798;2023-04-01T08:03:05;98930.41;;;9.43;100.00
2178;BME280;1095;50.992;6.798;2023-04-01T08:05:41;98931.59;;;9.40;100.00
2178;BME280;1095;50.992;6.798;2023-04-01T08:08:17;98925.56;;;9.40;100.00
2178;BME280;1095;50.992;6.798;2023-04-01T08:10:49;98936.44;;;9.43;100.00
2178;BME280;1095;50.992;6.798;2023-04-01T08:13:21;98942.25;;;9.45;100.00
2178;BME280;1095;50.992;6.798;2023-04-01T08:15:57;98942.91;;;9.54;100.00
2178;BME280;1095;50.992;6.798;2023-04-01T08:18:36;98952.16;;;9.56;100.00
2178;BME280;1095;50.992;6.798;2023-04-01T08:21:10;98953.03;;;9.63;100.00
2178;BME280;1095;50.992;6.798;2023-04-01T08:23:40;98955.81;;;9.62;100.00
2178;BME280;1095;50.992;6.798;2023-04-01T08:26:12;98963.47;;;9.63;100.00
2178;BME280;1095;50.992;6.798;2023-04-01T08:28:45;98960.63;;;9.58;100.00
2178;BME280;1095;50.992;6.798;2023-04-01T08:31:19;98956.06;;;9.67;100.00
2178;BME280;1095;50.992;6.798;2023-04-01T08:33:50;98970.03;;;9.81;100.00
2178;BME280;1095;50.992;6.798;2023-04-01T08:36:22;98961.66;;;9.92;100.00
2178;BME280;1095;50.992;6.798;2023-04-01T08:38:52;98962.47;;;9.99;100.00
2178;BME280;1095;50.992;6.798;2023-04-01T08:41:37;98965.72;;;10.01;100.00
2178;BME280;1095;50.992;6.798;2023-04-01T08:44:46;98961.28;;;10.02;100.00
2178;BME280;1095;50.992;6.798;2023-04-01T08:47:55;98968.31;;;10.01;100.00
2178;BME280;1095;50.992;6.798;2023-04-01T08:50:51;98971.94;;;10.00;100.00
2178;BME280;1095;50.992;6.798;2023-04-01T08:56:21;98986.97;;;9.91;100.00
2178;BME280;1095;50.992;6.798;2023-04-01T08:59:02;98975.78;;;10.04;100.00
2178;BME280;1095;50.992;6.798;2023-04-01T09:01:41;98984.03;;;10.08;100.00
2178;BME280;1095;50.992;6.798;2023-04-01T09:04:26;98989.69;;;10.11;100.00
2178;BME280;1095;50.992;6.798;2023-04-01T09:07:10;98993.84;;;9.99;100.00
2178;BME280;1095;50.992;6.798;2023-04-01T09:09:59;98995.84;;;9.97;100.00
2178;BME280;1095;50.992;6.798;2023-04-01T09:13:05;98999.44;;;9.89;100.00
2178;BME280;1095;50.992;6.798;2023-04-01T09:15:55;98996.00;;;9.89;100.00
2178;BME280;1095;50.992;6.798;2023-04-01T09:18:57;99002.25;;;9.94;100.00
2178;BME280;1095;50.992;6.798;2023-04-01T09:21:37;99011.88;;;9.94;100.00
2178;BME280;1095;50.992;6.798;2023-04-01T09:24:30;99004.47;;;9.97;100.00
2178;BME280;1095;50.992;6.798;2023-04-01T09:27:04;99012.13;;;9.99;100.00
2178;BME280;1095;50.992;6.798;2023-04-01T09:32:48;99024.00;;;10.02;100.00
2178;BME280;1095;50.992;6.798;2023-04-01T09:35:39;99024.81;;;10.02;100.00
2178;BME280;1095;50.992;6.798;2023-04-01T09:38:20;99033.03;;;9.99;100.00
2178;BME280;1095;50.992;6.798;2023-04-01T09:40:54;99021.16;;;9.96;100.00
2178;BME280;1095;50.992;6.798;2023-04-01T09:43:25;99043.91;;;10.03;100.00
2178;BME280;1095;50.992;6.798;2023-04-01T09:46:06;99032.66;;;10.02;100.00
2178;BME280;1095;50.992;6.798;2023-04-01T09:48:55;99040.88;;;9.99;100.00
2178;BME280;1095;50.992;6.798;2023-04-01T09:51:32;99039.88;;;10.00;100.00
2178;BME280;1095;50.992;6.798;2023-04-01T09:54:13;99054.94;;;9.98;100.00
2178;BME280;1095;50.992;6.798;2023-04-01T09:57:09;99056.53;;;9.99;100.00
2178;BME280;1095;50.992;6.798;2023-04-01T09:59:54;99051.25;;;9.86;100.00
2178;BME280;1095;50.992;6.798;2023-04-01T10:12:04;99072.72;;;10.09;100.00
2178;BME280;1095;50.992;6.798;2023-04-01T10:15:06;99076.13;;;10.10;100.00
2178;BME280;1095;50.992;6.798;2023-04-01T10:21:10;99078.31;;;10.06;100.00
2178;BME280;1095;50.992;6.798;2023-04-01T10:23:55;99093.22;;;10.12;100.00
2178;BME280;1095;50.992;6.798;2023-04-01T10:26:38;99087.72;;;10.22;100.00
2178;BME280;1095;50.992;6.798;2023-04-01T10:29:31;99089.50;;;10.21;100.00
2178;BME280;1095;50.992;6.798;2023-04-01T10:32:22;99101.31;;;10.17;100.00
2178;BME280;1095;50.992;6.798;2023-04-01T10:35:29;99097.84;;;10.32;100.00
2178;BME280;1095;50.992;6.798;2023-04-01T10:38:37;99087.19;;;10.33;100.00
2178;BME280;1095;50.992;6.798;2023-04-01T10:41:50;99093.50;;;10.52;100.00
2178;BME280;1095;50.992;6.798;2023-04-01T10:47:50;99090.34;;;10.63;100.00
2178;BME280;1095;50.992;6.798;2023-04-01T10:53:35;99101.81;;;10.62;100.00
2178;BME280;1095;50.992;6.798;2023-04-01T10:56:34;99088.78;;;10.69;100.00
2178;BME280;1095;50.992;6.798;2023-04-01T10:59:30;99094.25;;;10.74;100.00
2178;BME280;1095;50.992;6.798;2023-04-01T11:05:33;99106.16;;;10.89;100.00
2178;BME280;1095;50.992;6.798;2023-04-01T11:11:26;99095.31;;;10.92;100.00
2178;BME280;1095;50.992;6.798;2023-04-01T11:14:17;99104.22;;;11.05;100.00
2178;BME280;1095;50.992;6.798;2023-04-01T11:17:19;99098.38;;;11.03;100.00
2178;BME280;1095;50.992;6.798;2023-04-01T11:22:57;99109.69;;;11.10;100.00
2178;BME280;1095;50.992;6.798;2023-04-01T11:25:48;99112.81;;;10.92;100.00
2178;BME280;1095;50.992;6.798;2023-04-01T11:28:35;99113.06;;;11.04;100.00
2178;BME280;1095;50.992;6.798;2023-04-01T11:31:23;99118.53;;;11.09;100.00
2178;BME280;1095;50.992;6.798;2023-04-01T11:33:56;99105.28;;;11.17;100.00
2178;BME280;1095;50.992;6.798;2023-04-01T11:36:39;99125.66;;;11.28;100.00
2178;BME280;1095;50.992;6.798;2023-04-01T11:39:20;99128.69;;;11.32;100.00
2178;BME280;1095;50.992;6.798;2023-04-01T11:41:52;99134.13;;;11.43;100.00
2178;BME280;1095;50.992;6.798;2023-04-01T11:44:25;99136.53;;;11.25;100.00
2178;BME280;1095;50.992;6.798;2023-04-01T11:47:04;99131.69;;;11.35;100.00
2178;BME280;1095;50.992;6.798;2023-04-01T11:49:47;99137.53;;;11.24;100.00
2178;BME280;1095;50.992;6.798;2023-04-01T11:52:40;99142.75;;;11.24;100.00
2178;BME280;1095;50.992;6.798;2023-04-01T11:55:23;99135.75;;;11.31;100.00
2178;BME280;1095;50.992;6.798;2023-04-01T12:01:10;99151.28;;;11.52;100.00
2178;BME280;1095;50.992;6.798;2023-04-01T12:06:48;99160.69;;;11.27;99.91
2178;BME280;1095;50.992;6.798;2023-04-01T12:09:22;99157.44;;;11.18;100.00
2178;BME280;1095;50.992;6.798;2023-04-01T12:11:57;99162.94;;;11.30;100.00
2178;BME280;1095;50.992;6.798;2023-04-01T12:14:36;99165.75;;;11.28;100.00
2178;BME280;1095;50.992;6.798;2023-04-01T12:17:10;99164.72;;;11.23;100.00
2178;BME280;1095;50.992;6.798;2023-04-01T12:19:51;99166.16;;;11.32;100.00
2178;BME280;1095;50.992;6.798;2023-04-01T12:22:37;99164.34;;;11.33;99.76
2178;BME280;1095;50.992;6.798;2023-04-01T12:27:50;99173.78;;;11.27;99.17
2178;BME280;1095;50.992;6.798;2023-04-01T12:33:33;99186.19;;;11.59;98.45
2178;BME280;1095;50.992;6.798;2023-04-01T12:36:11;99184.47;;;11.39;97.87
2178;BME280;1095;50.992;6.798;2023-04-01T12:38:48;99176.22;;;11.35;98.07
2178;BME280;1095;50.992;6.798;2023-04-01T12:41:23;99179.38;;;11.17;97.82
2178;BME280;1095;50.992;6.798;2023-04-01T12:44:26;99189.13;;;11.30;98.14
2178;BME280;1095;50.992;6.798;2023-04-01T12:47:16;99187.28;;;11.24;98.05
2178;BME280;1095;50.992;6.798;2023-04-01T12:50:08;99194.75;;;11.27;98.22
2178;BME280;1095;50.992;6.798;2023-04-01T12:52:55;99189.78;;;11.52;97.96
2178;BME280;1095;50.992;6.798;2023-04-01T12:55:36;99200.31;;;11.65;97.62
2178;BME280;1095;50.992;6.798;2023-04-01T12:58:23;99200.75;;;11.82;96.77
2178;BME280;1095;50.992;6.798;2023-04-01T13:01:12;99204.72;;;11.64;97.05
2178;BME280;1095;50.992;6.798;2023-04-01T13:03:52;99205.66;;;11.44;97.89
2178;BME280;1095;50.992;6.798;2023-04-01T13:06:40;99213.09;;;11.34;98.16
2178;BME280;1095;50.992;6.798;2023-04-01T13:09:19;99218.38;;;11.47;98.57
2178;BME280;1095;50.992;6.798;2023-04-01T13:12:02;99216.97;;;11.51;98.88
2178;BME280;1095;50.992;6.798;2023-04-01T13:14:48;99216.59;;;11.60;98.06
2178;BME280;1095;50.992;6.798;2023-04-01T13:17:21;99213.03;;;11.75;97.46
2178;BME280;1095;50.992;6.798;2023-04-01T13:19:54;99214.44;;;11.71;97.26
2178;BME280;1095;50.992;6.798;2023-04-01T13:22:27;99214.41;;;11.64;96.99
2178;BME280;1095;50.992;6.798;2023-04-01T13:24:59;99223.28;;;11.70;97.62
2178;BME280;1095;50.992;6.798;2023-04-01T13:27:34;99229.53;;;11.69;98.26
2178;BME280;1095;50.992;6.798;2023-04-01T13:30:20;99229.28;;;11.57;98.93
2178;BME280;1095;50.992;6.798;2023-04-01T13:32:52;99231.63;;;11.32;99.82
2178;BME280;1095;50.992;6.798;2023-04-01T13:35:30;99244.78;;;11.11;100.00
2178;BME280;1095;50.992;6.798;2023-04-01T13:40:53;99246.66;;;10.82;100.00
2178;BME280;1095;50.992;6.798;2023-04-01T13:43:28;99240.56;;;10.75;100.00
2178;BME280;1095;50.992;6.798;2023-04-01T13:46:11;99238.94;;;10.74;100.00
2178;BME280;1095;50.992;6.798;2023-04-01T13:52:06;99257.56;;;10.64;100.00
2178;BME280;1095;50.992;6.798;2023-04-01T13:54:56;99261.50;;;10.54;100.00
2178;BME280;1095;50.992;6.798;2023-04-01T13:57:42;99258.47;;;10.50;100.00
2178;BME280;1095;50.992;6.798;2023-04-01T14:00:39;99281.44;;;10.55;100.00
2178;BME280;1095;50.992;6.798;2023-04-01T14:06:08;99270.59;;;10.58;100.00
2178;BME280;1095;50.992;6.798;2023-04-01T14:08:52;99282.75;;;10.66;100.00
2178;BME280;1095;50.992;6.798;2023-04-01T14:11:29;99284.78;;;10.70;100.00
2178;BME280;1095;50.992;6.798;2023-04-01T14:14:04;99293.41;;;10.64;100.00
2178;BME280;1095;50.992;6.798;2023-04-01T14:19:51;99296.00;;;10.43;100.00
2178;BME280;1095;50.992;6.798;2023-04-01T14:22:31;99297.88;;;10.49;100.00
2178;BME280;1095;50.992;6.798;2023-04-01T14:25:18;99281.38;;;10.48;100.00
2178;BME280;1095;50.992;6.798;2023-04-01T14:27:56;99301.19;;;10.57;100.00
2178;BME280;1095;50.992;6.798;2023-04-01T14:30:41;99304.34;;;10.53;100.00
2178;BME280;1095;50.992;6.798;2023-04-01T14:33:23;99309.78;;;10.51;100.00
2178;BME280;1095;50.992;6.798;2023-04-01T14:36:04;99308.34;;;10.27;100.00
2178;BME280;1095;50.992;6.798;2023-04-01T14:38:47;99308.19;;;10.29;100.00
2178;BME280;1095;50.992;6.798;2023-04-01T14:41:27;99318.91;;;10.41;100.00
2178;BME280;1095;50.992;6.798;2023-04-01T14:44:18;99316.56;;;10.46;100.00
2178;BME280;1095;50.992;6.798;2023-04-01T14:47:08;99316.81;;;10.51;100.00
2178;BME280;1095;50.992;6.798;2023-04-01T14:49:36;99313.31;;;10.65;100.00
2178;BME280;1095;50.992;6.798;2023-04-01T14:52:11;99317.19;;;10.69;100.00
2178;BME280;1095;50.992;6.798;2023-04-01T14:54:42;99310.34;;;10.68;100.00
2178;BME280;1095;50.992;6.798;2023-04-01T14:57:12;99309.34;;;10.69;100.00
2178;BME280;1095;50.992;6.798;2023-04-01T14:59:40;99312.00;;;10.76;100.00
2178;BME280;1095;50.992;6.798;2023-04-01T15:02:18;99321.91;;;10.80;100.00
2178;BME280;1095;50.992;6.798;2023-04-01T15:04:58;99333.03;;;10.89;100.00
2178;BME280;1095;50.992;6.798;2023-04-01T15:07:57;99322.66;;;10.74;100.00
2178;BME280;1095;50.992;6.798;2023-04-01T15:10:43;99339.72;;;10.70;100.00
2178;BME280;1095;50.992;6.798;2023-04-01T15:13:14;99338.69;;;10.64;100.00